עמוד ראשי
METAR-TAF:

METAR-TAF

שדות תעופה :

Pacific Missile Test Facility Barking Sands

Kekaha, הוואי, ארצות הברית

קו רוחב: 22-02-11N, קו אורך: 159-47-11W, גובה: 4מטר

תצפית מזג אוויר נוכחית

הדו"ח נערך לפני 36דקות, בשעה 09:19 UTC
רוח רגועה
טמפרטורת 26 צלסיוס
לחות 61%
לחץ 1019 hPa
ראות: 16.1קילומטר
עננים פזורים בגובה 5000רגל

METAR: PHBK 240919Z AUTO 00000KT 10SM SCT050 26/18 A3010 RMK AO2 T02560183 $

זמן: 23:55 (09:55 UTC)


TAF: חסר

תצפיות ותחזיות מזג אוויר לגבי יותר מ- 4,000 שדות תעופה ברחבי העולם. דוחות METAR ו- TAF.

התחנות הזמינות מסומנות בנקודות צהובות ואדומות על גבי המפה.

העבר את העכבר לנקודה הצבעונית על מנת לראות את שם התחנה.

לאחר מכן, לחץ כדי לראות את תוכן ואת תחזיות מזג האוויר.

כדי לשנות את המפה: לחץ על הכפתורים הירוקים עם הפלוס השחור כדי להתקרב; על הכפתור הירוק עם המקף כדי להתרחק; או בחיצים הירוקים למפות סמוכות.


METAR-TAF: